createdAt,value
2023-02-17T00:00:03.244Z,21.70
2023-02-17T00:02:51.109Z,22.50
2023-02-17T00:05:40.401Z,19.90
2023-02-17T00:08:26.862Z,20.37
2023-02-17T00:11:13.831Z,22.17
2023-02-17T00:14:00.855Z,22.80
2023-02-17T00:16:47.158Z,22.30
2023-02-17T00:19:36.141Z,22.90
2023-02-17T00:22:22.741Z,24.53
2023-02-17T00:25:09.576Z,21.90
2023-02-17T00:27:56.188Z,21.17
2023-02-17T00:30:42.663Z,21.87
2023-02-17T00:33:29.296Z,22.10
2023-02-17T00:36:18.999Z,26.70
2023-02-17T00:39:06.481Z,22.80
2023-02-17T00:41:52.803Z,23.33
2023-02-17T00:44:39.336Z,21.10
2023-02-17T00:47:25.710Z,23.83
2023-02-17T00:50:12.283Z,23.03
2023-02-17T00:53:00.240Z,25.77
2023-02-17T00:55:47.115Z,26.90
2023-02-17T00:58:33.527Z,28.27
2023-02-17T01:01:19.901Z,28.33
2023-02-17T01:04:06.836Z,30.67
2023-02-17T01:06:53.636Z,35.87
2023-02-17T01:09:41.387Z,34.57
2023-02-17T01:12:28.028Z,36.97
2023-02-17T01:15:14.992Z,41.13
2023-02-17T01:18:02.683Z,45.53
2023-02-17T01:20:49.867Z,52.87
2023-02-17T01:23:36.242Z,54.73
2023-02-17T01:26:26.170Z,52.27
2023-02-17T01:29:12.861Z,57.70
2023-02-17T01:31:59.233Z,44.17
2023-02-17T01:34:45.788Z,37.73
2023-02-17T01:37:33.487Z,37.50
2023-02-17T01:40:20.221Z,34.13
2023-02-17T01:43:15.473Z,30.77
2023-02-17T01:46:03.807Z,35.20
2023-02-17T01:48:52.229Z,34.73
2023-02-17T01:51:39.751Z,30.67
2023-02-17T01:54:30.303Z,29.13
2023-02-17T01:57:19.003Z,25.87
2023-02-17T02:00:09.569Z,27.53
2023-02-17T02:02:56.631Z,26.13
2023-02-17T02:05:43.515Z,25.77
2023-02-17T02:08:35.365Z,23.50
2023-02-17T02:11:21.969Z,21.57
2023-02-17T02:14:09.606Z,22.93
2023-02-17T02:17:08.757Z,22.97
2023-02-17T02:20:13.638Z,23.30
2023-02-17T02:23:18.114Z,24.93
2023-02-17T02:26:37.000Z,24.63
2023-02-17T02:29:56.225Z,25.10
2023-02-17T02:32:58.193Z,25.40
2023-02-17T02:35:51.969Z,21.60
2023-02-17T02:38:43.419Z,22.70
2023-02-17T02:41:35.199Z,20.83
2023-02-17T02:44:22.940Z,22.73
2023-02-17T02:47:47.056Z,25.73
2023-02-17T02:50:51.391Z,22.77
2023-02-17T02:54:09.510Z,22.63
2023-02-17T02:57:35.674Z,21.73
2023-02-17T03:00:26.183Z,22.40
2023-02-17T03:03:18.326Z,21.60
2023-02-17T03:06:12.989Z,20.43
2023-02-17T03:09:04.405Z,22.07
2023-02-17T03:11:52.048Z,22.03
2023-02-17T03:14:39.994Z,21.60
2023-02-17T03:17:26.750Z,22.83
2023-02-17T03:20:15.193Z,20.90
2023-02-17T03:23:03.412Z,21.87
2023-02-17T03:25:50.275Z,20.17
2023-02-17T03:28:36.808Z,24.40
2023-02-17T03:31:23.764Z,24.30
2023-02-17T03:34:10.660Z,23.23
2023-02-17T03:36:57.064Z,22.00
2023-02-17T03:39:44.997Z,21.03
2023-02-17T03:42:31.522Z,20.93
2023-02-17T03:45:18.086Z,21.50
2023-02-17T03:48:05.052Z,21.93
2023-02-17T03:50:51.416Z,20.77
2023-02-17T03:53:37.822Z,20.57
2023-02-17T03:56:25.683Z,20.30
2023-02-17T03:59:12.397Z,19.17
2023-02-17T04:01:58.826Z,20.00
2023-02-17T04:04:45.184Z,19.43
2023-02-17T04:07:31.526Z,19.17
2023-02-17T04:10:18.402Z,18.53
2023-02-17T04:13:06.267Z,20.07
2023-02-17T04:15:53.350Z,24.53
2023-02-17T04:18:40.362Z,19.27
2023-02-17T04:21:27.145Z,17.77
2023-02-17T04:24:13.645Z,20.30
2023-02-17T04:26:59.906Z,18.37
2023-02-17T04:29:47.637Z,17.47
2023-02-17T04:32:34.318Z,17.33
2023-02-17T04:35:20.734Z,18.10
2023-02-17T04:38:07.961Z,17.20
2023-02-17T04:40:55.705Z,16.23
2023-02-17T04:43:42.242Z,17.13
2023-02-17T04:46:30.156Z,17.60
2023-02-17T04:49:17.124Z,19.37
2023-02-17T04:52:03.524Z,13.73
2023-02-17T04:54:49.892Z,17.43
2023-02-17T04:57:36.762Z,15.47
2023-02-17T05:00:23.689Z,18.83
2023-02-17T05:03:11.340Z,18.93
2023-02-17T05:05:58.062Z,16.73
2023-02-17T05:08:44.468Z,17.77
2023-02-17T05:11:31.566Z,17.97
2023-02-17T05:14:18.707Z,17.37
2023-02-17T05:17:05.542Z,18.67
2023-02-17T05:19:53.442Z,16.00
2023-02-17T05:22:40.152Z,15.83
2023-02-17T05:25:26.715Z,14.10
2023-02-17T05:28:13.103Z,15.97
2023-02-17T05:30:59.616Z,14.80
2023-02-17T05:33:46.535Z,16.63
2023-02-17T05:36:34.351Z,18.00
2023-02-17T05:39:21.004Z,17.40
2023-02-17T05:42:07.661Z,16.60
2023-02-17T05:44:53.884Z,16.13
2023-02-17T05:47:40.178Z,16.73
2023-02-17T05:50:26.674Z,18.17
2023-02-17T05:53:14.461Z,17.47
2023-02-17T05:56:01.175Z,18.90
2023-02-17T05:58:47.746Z,17.40
2023-02-17T06:01:36.470Z,20.13
2023-02-17T06:04:24.146Z,19.63
2023-02-17T06:07:10.923Z,17.73
2023-02-17T06:09:58.742Z,18.13
2023-02-17T06:12:45.549Z,21.97
2023-02-17T06:15:31.932Z,19.20
2023-02-17T06:18:18.569Z,18.87
2023-02-17T06:21:05.456Z,19.50
2023-02-17T06:23:51.833Z,19.20
2023-02-17T06:26:39.545Z,20.97
2023-02-17T06:29:27.575Z,20.40
2023-02-17T06:32:13.856Z,18.07
2023-02-17T06:35:00.219Z,18.60
2023-02-17T06:37:46.583Z,17.63
2023-02-17T06:40:33.025Z,15.43
2023-02-17T06:43:20.891Z,16.97
2023-02-17T06:46:07.969Z,16.73
2023-02-17T06:48:54.422Z,15.30
2023-02-17T06:51:40.890Z,14.07
2023-02-17T06:54:27.354Z,15.23
2023-02-17T06:57:13.862Z,12.20
2023-02-17T07:00:01.983Z,15.30
2023-02-17T07:02:48.952Z,13.13
2023-02-17T07:05:37.033Z,13.67
2023-02-17T07:08:23.529Z,14.93
2023-02-17T07:11:12.345Z,14.13
2023-02-17T07:13:59.002Z,17.00
2023-02-17T07:16:47.032Z,13.87
2023-02-17T07:19:34.158Z,15.60
2023-02-17T07:22:21.569Z,16.10
2023-02-17T07:25:08.845Z,15.83
2023-02-17T07:27:55.221Z,15.20
2023-02-17T07:30:43.333Z,16.53
2023-02-17T07:33:31.410Z,16.57
2023-02-17T07:36:20.612Z,16.13
2023-02-17T07:39:07.195Z,17.53
2023-02-17T07:41:54.005Z,14.00
2023-02-17T07:44:40.323Z,12.50
2023-02-17T07:47:26.775Z,12.47
2023-02-17T07:50:14.618Z,13.47
2023-02-17T07:53:01.910Z,11.50
2023-02-17T07:55:48.468Z,12.07
2023-02-17T07:58:35.517Z,16.13
2023-02-17T08:01:24.476Z,17.97
2023-02-17T08:04:11.161Z,19.60
2023-02-17T08:06:59.251Z,18.53
2023-02-17T08:10:03.313Z,19.43
2023-02-17T08:13:03.758Z,20.30
2023-02-17T08:15:50.504Z,19.40
2023-02-17T08:18:36.936Z,21.63
2023-02-17T08:21:24.548Z,20.30
2023-02-17T08:24:13.609Z,19.20
2023-02-17T08:27:00.606Z,22.43
2023-02-17T08:29:47.751Z,20.07
2023-02-17T08:32:34.103Z,23.00
2023-02-17T08:35:22.630Z,15.93
2023-02-17T08:38:09.010Z,19.27
2023-02-17T08:40:56.684Z,21.17
2023-02-17T08:43:44.052Z,22.13
2023-02-17T08:46:31.055Z,20.23
2023-02-17T08:49:18.974Z,24.37
2023-02-17T08:52:05.954Z,20.47
2023-02-17T08:54:53.542Z,19.77
2023-02-17T08:57:41.650Z,19.40
2023-02-17T09:00:28.627Z,21.70
2023-02-17T09:03:15.384Z,16.97
2023-02-17T09:06:02.299Z,18.97
2023-02-17T09:08:49.448Z,17.67
2023-02-17T09:11:36.418Z,16.73
2023-02-17T09:14:25.063Z,16.03
2023-02-17T09:17:11.931Z,16.30
2023-02-17T09:19:58.251Z,20.23
2023-02-17T09:22:44.691Z,16.70
2023-02-17T09:25:31.253Z,17.67
2023-02-17T09:28:17.547Z,19.43
2023-02-17T09:31:11.594Z,18.90
2023-02-17T09:33:59.362Z,18.00
2023-02-17T09:36:46.349Z,19.03
2023-02-17T09:39:32.976Z,18.90
2023-02-17T09:42:21.739Z,17.27
2023-02-17T09:45:13.078Z,17.73
2023-02-17T09:48:04.328Z,17.27
2023-02-17T09:50:56.609Z,18.30
2023-02-17T09:53:49.634Z,19.73
2023-02-17T09:56:39.528Z,17.13
2023-02-17T09:59:30.906Z,17.67
2023-02-17T10:02:25.212Z,16.07
2023-02-17T10:05:17.705Z,17.33
2023-02-17T10:08:12.263Z,15.37
2023-02-17T10:11:04.956Z,15.97
2023-02-17T10:13:55.485Z,17.03
2023-02-17T10:16:48.620Z,16.80
2023-02-17T10:19:40.299Z,16.33
2023-02-17T10:22:28.522Z,17.67
2023-02-17T10:25:17.117Z,16.47
2023-02-17T10:28:10.410Z,12.17
2023-02-17T10:31:04.989Z,15.13
2023-02-17T10:33:56.350Z,15.77
2023-02-17T10:36:52.485Z,14.77
2023-02-17T10:39:48.845Z,14.33
2023-02-17T10:42:37.040Z,13.07
2023-02-17T10:45:31.464Z,13.80
2023-02-17T10:48:22.818Z,12.87
2023-02-17T10:51:14.500Z,10.60
2023-02-17T10:54:04.896Z,12.07
2023-02-17T10:56:57.701Z,13.57
2023-02-17T10:59:46.110Z,11.50
2023-02-17T11:02:38.010Z,12.70
2023-02-17T11:05:27.590Z,9.80
2023-02-17T11:08:30.084Z,11.70
2023-02-17T11:11:21.238Z,10.97
2023-02-17T11:14:26.931Z,9.30
2023-02-17T11:17:17.777Z,8.87
2023-02-17T11:20:07.869Z,9.33
2023-02-17T11:23:03.008Z,10.50
2023-02-17T11:26:02.638Z,9.37
2023-02-17T11:28:49.148Z,7.43
2023-02-17T11:31:37.383Z,9.83
2023-02-17T11:34:28.364Z,9.70
2023-02-17T11:37:24.552Z,8.17
2023-02-17T11:40:26.680Z,7.93
2023-02-17T11:43:19.169Z,7.53
2023-02-17T11:46:31.450Z,10.23
2023-02-17T11:49:40.980Z,7.33
2023-02-17T11:52:51.542Z,7.43
2023-02-17T11:55:48.283Z,10.10
2023-02-17T11:58:47.741Z,7.13
2023-02-17T12:01:59.832Z,8.67
2023-02-17T12:05:02.134Z,8.37
2023-02-17T12:08:01.017Z,8.37
2023-02-17T12:11:00.214Z,7.93
2023-02-17T12:14:01.412Z,8.60
2023-02-17T12:16:56.556Z,10.67
2023-02-17T12:19:50.317Z,7.83
2023-02-17T12:22:51.207Z,6.90
2023-02-17T12:25:42.650Z,8.50
2023-02-17T12:28:47.896Z,10.00
2023-02-17T12:31:52.634Z,8.57
2023-02-17T12:34:43.759Z,8.13
2023-02-17T12:37:33.669Z,10.57
2023-02-17T12:40:34.990Z,7.37
2023-02-17T12:43:27.997Z,7.03
2023-02-17T12:46:18.409Z,7.37
2023-02-17T12:49:10.712Z,9.43
2023-02-17T12:52:02.268Z,8.17
2023-02-17T12:54:54.148Z,8.17
2023-02-17T12:57:53.373Z,7.77
2023-02-17T13:00:43.470Z,9.07
2023-02-17T13:03:31.106Z,8.07
2023-02-17T13:06:27.092Z,8.53
2023-02-17T13:09:24.890Z,8.37
2023-02-17T13:12:36.423Z,8.50
2023-02-17T13:15:31.023Z,9.43
2023-02-17T13:18:30.763Z,9.17
2023-02-17T13:21:20.472Z,9.40
2023-02-17T13:24:14.086Z,10.03
2023-02-17T13:27:11.665Z,9.43
2023-02-17T13:30:03.276Z,10.97
2023-02-17T13:33:03.089Z,9.00
2023-02-17T13:35:50.874Z,10.00
2023-02-17T13:38:37.285Z,9.00
2023-02-17T13:41:23.909Z,9.53
2023-02-17T13:44:27.404Z,9.83
2023-02-17T13:47:17.766Z,9.83
2023-02-17T13:50:08.720Z,8.30
2023-02-17T13:52:55.618Z,10.07
2023-02-17T13:55:42.577Z,10.37
2023-02-17T13:58:31.326Z,10.33
2023-02-17T14:01:20.710Z,8.80
2023-02-17T14:04:20.616Z,8.97
2023-02-17T14:07:09.002Z,9.83
2023-02-17T14:09:56.293Z,10.27
2023-02-17T14:12:42.773Z,9.77
2023-02-17T14:15:30.335Z,6.60
2023-02-17T14:18:25.431Z,7.60
2023-02-17T14:21:24.088Z,6.63
2023-02-17T14:24:26.335Z,5.13
2023-02-17T14:27:14.257Z,5.50
2023-02-17T14:30:00.757Z,4.70
2023-02-17T14:32:47.987Z,5.23
2023-02-17T14:35:35.702Z,4.10
2023-02-17T14:38:24.398Z,4.80
2023-02-17T14:41:12.185Z,5.00
2023-02-17T14:43:59.884Z,5.87
2023-02-17T14:46:46.412Z,3.37
2023-02-17T14:49:32.888Z,4.93
2023-02-17T14:52:22.106Z,4.30
2023-02-17T14:55:16.220Z,6.53
2023-02-17T14:58:04.896Z,3.80
2023-02-17T15:00:52.402Z,4.00
2023-02-17T15:03:38.850Z,3.50
2023-02-17T15:06:31.424Z,5.17
2023-02-17T15:09:22.146Z,5.80
2023-02-17T15:12:15.848Z,4.57
2023-02-17T15:15:04.051Z,6.97
2023-02-17T15:17:50.930Z,4.90
2023-02-17T15:20:38.142Z,4.77
2023-02-17T15:23:26.374Z,3.97
2023-02-17T15:26:13.192Z,6.40
2023-02-17T15:29:00.485Z,7.20
2023-02-17T15:31:49.641Z,6.20
2023-02-17T15:34:37.115Z,7.47
2023-02-17T15:37:23.784Z,7.17
2023-02-17T15:40:15.285Z,6.47
2023-02-17T15:43:03.415Z,6.03
2023-02-17T15:45:50.197Z,6.27
2023-02-17T15:48:39.212Z,5.07
2023-02-17T15:51:26.042Z,8.73
2023-02-17T15:54:12.985Z,7.57
2023-02-17T15:57:00.492Z,5.57
2023-02-17T15:59:47.265Z,6.10
2023-02-17T16:02:33.547Z,6.23
2023-02-17T16:05:23.323Z,6.17
2023-02-17T16:08:10.276Z,6.30
2023-02-17T16:10:56.711Z,7.00
2023-02-17T16:13:44.626Z,8.60
2023-02-17T16:16:34.350Z,6.63
2023-02-17T16:19:21.153Z,10.70
2023-02-17T16:22:09.542Z,6.87
2023-02-17T16:24:56.098Z,7.17
2023-02-17T16:27:43.794Z,6.80
2023-02-17T16:30:32.849Z,5.57
2023-02-17T16:33:19.964Z,7.07
2023-02-17T16:36:15.169Z,6.60
2023-02-17T16:39:11.372Z,6.67
2023-02-17T16:41:58.343Z,5.47
2023-02-17T16:44:45.304Z,6.37
2023-02-17T16:47:32.574Z,5.23
2023-02-17T16:50:25.335Z,8.57
2023-02-17T16:53:13.777Z,7.07
2023-02-17T16:56:14.931Z,5.30
2023-02-17T16:59:01.345Z,6.07
2023-02-17T17:01:48.641Z,5.40
2023-02-17T17:04:35.286Z,6.03
2023-02-17T17:07:21.720Z,6.03
2023-02-17T17:10:17.361Z,4.07
2023-02-17T17:13:05.440Z,6.30
2023-02-17T17:15:52.094Z,6.50
2023-02-17T17:18:38.640Z,7.20
2023-02-17T17:21:25.401Z,7.20
2023-02-17T17:24:11.905Z,8.50
2023-02-17T17:26:58.224Z,8.07
2023-02-17T17:29:45.947Z,8.10
2023-02-17T17:32:32.506Z,4.67
2023-02-17T17:35:20.087Z,7.47
2023-02-17T17:38:07.239Z,7.43
2023-02-17T17:40:55.756Z,10.10
2023-02-17T17:43:45.138Z,6.97
2023-02-17T17:46:35.379Z,3.37
2023-02-17T17:49:22.106Z,3.73
2023-02-17T17:52:08.372Z,5.43
2023-02-17T17:54:54.815Z,7.43
2023-02-17T17:57:41.512Z,6.30
2023-02-17T18:00:28.576Z,5.50
2023-02-17T18:03:16.414Z,3.33
2023-02-17T18:06:03.721Z,2.57
2023-02-17T18:08:51.503Z,9.40
2023-02-17T18:11:40.127Z,6.60
2023-02-17T18:14:26.726Z,3.17
2023-02-17T18:17:15.409Z,4.93
2023-02-17T18:20:03.348Z,4.40
2023-02-17T18:22:49.722Z,7.23
2023-02-17T18:25:36.309Z,6.57
2023-02-17T18:28:22.964Z,5.70
2023-02-17T18:31:11.854Z,6.87
2023-02-17T18:33:58.389Z,5.53
2023-02-17T18:36:46.125Z,8.07
2023-02-17T18:39:32.796Z,4.67
2023-02-17T18:42:19.188Z,4.17
2023-02-17T18:45:06.207Z,5.53
2023-02-17T18:47:52.589Z,7.13
2023-02-17T18:50:39.340Z,3.70
2023-02-17T18:53:27.470Z,4.93
2023-02-17T18:56:16.769Z,4.63
2023-02-17T18:59:03.573Z,3.83
2023-02-17T19:01:50.408Z,4.50
2023-02-17T19:04:37.740Z,6.70
2023-02-17T19:07:24.393Z,5.40
2023-02-17T19:10:13.752Z,4.73
2023-02-17T19:13:00.671Z,6.73
2023-02-17T19:15:47.377Z,4.20
2023-02-17T19:18:33.925Z,7.13
2023-02-17T19:21:21.442Z,3.90
2023-02-17T19:24:09.507Z,4.47
2023-02-17T19:26:57.739Z,6.80
2023-02-17T19:29:44.212Z,4.80
2023-02-17T19:32:30.764Z,6.17
2023-02-17T19:35:17.284Z,3.97
2023-02-17T19:38:04.019Z,2.87
2023-02-17T19:40:50.371Z,8.33
2023-02-17T19:43:38.195Z,5.37
2023-02-17T19:46:25.785Z,6.10
2023-02-17T19:49:12.307Z,8.03
2023-02-17T19:51:58.664Z,4.23
2023-02-17T19:54:45.082Z,5.47
2023-02-17T19:57:31.563Z,4.43
2023-02-17T20:00:19.839Z,6.67
2023-02-17T20:03:06.636Z,4.00
2023-02-17T20:05:53.558Z,8.23
2023-02-17T20:08:40.824Z,7.73
2023-02-17T20:11:28.440Z,4.93
2023-02-17T20:14:15.315Z,5.33
2023-02-17T20:17:03.486Z,4.80
2023-02-17T20:19:50.011Z,6.60
2023-02-17T20:22:36.403Z,4.23
2023-02-17T20:25:22.837Z,6.37
2023-02-17T20:28:09.165Z,6.20
2023-02-17T20:30:55.570Z,4.73
2023-02-17T20:33:43.666Z,4.80
2023-02-17T20:36:30.634Z,5.63
2023-02-17T20:39:17.077Z,7.83
2023-02-17T20:42:05.150Z,7.53
2023-02-17T20:44:51.980Z,5.87
2023-02-17T20:47:38.448Z,3.93
2023-02-17T20:50:26.757Z,4.27
2023-02-17T20:53:13.627Z,9.00
2023-02-17T20:56:00.018Z,4.07
2023-02-17T20:58:46.568Z,7.47
2023-02-17T21:01:33.382Z,6.97
2023-02-17T21:04:19.923Z,4.97
2023-02-17T21:07:07.632Z,5.00
2023-02-17T21:09:54.134Z,5.53
2023-02-17T21:12:40.460Z,7.33
2023-02-17T21:15:28.404Z,6.50
2023-02-17T21:18:15.156Z,7.73
2023-02-17T21:21:01.750Z,2.43
2023-02-17T21:23:49.771Z,4.37
2023-02-17T21:26:37.010Z,7.67
2023-02-17T21:29:23.551Z,3.30
2023-02-17T21:32:10.020Z,5.50
2023-02-17T21:34:56.530Z,3.33
2023-02-17T21:37:43.458Z,5.13
2023-02-17T21:40:31.374Z,3.53
2023-02-17T21:43:36.170Z,3.37
2023-02-17T21:46:23.243Z,7.90
2023-02-17T21:49:09.858Z,6.93
2023-02-17T21:51:56.422Z,8.90
2023-02-17T21:54:42.963Z,5.50
2023-02-17T21:57:30.678Z,2.40
2023-02-17T22:00:17.990Z,5.00
2023-02-17T22:03:04.536Z,2.30
2023-02-17T22:05:51.196Z,6.13
2023-02-17T22:08:39.575Z,6.07
2023-02-17T22:11:28.225Z,4.90
2023-02-17T22:14:18.368Z,2.30
2023-02-17T22:17:04.859Z,3.63
2023-02-17T22:19:51.336Z,4.10
2023-02-17T22:22:37.768Z,8.33
2023-02-17T22:25:24.738Z,8.30
2023-02-17T22:28:13.443Z,4.63
2023-02-17T22:31:02.568Z,2.63
2023-02-17T22:33:49.234Z,6.80
2023-02-17T22:36:37.763Z,4.23
2023-02-17T22:39:24.112Z,5.20
2023-02-17T22:42:10.526Z,7.40
2023-02-17T22:44:56.947Z,4.23
2023-02-17T22:47:44.607Z,4.13
2023-02-17T22:50:31.157Z,6.70
2023-02-17T22:53:17.712Z,5.77
2023-02-17T22:56:05.160Z,3.10
2023-02-17T22:58:57.926Z,6.90
2023-02-17T23:01:44.509Z,5.50
2023-02-17T23:04:32.356Z,5.90
2023-02-17T23:07:19.622Z,4.80
2023-02-17T23:10:07.636Z,7.03
2023-02-17T23:12:54.106Z,8.60
2023-02-17T23:15:40.989Z,4.10
2023-02-17T23:18:29.824Z,7.93
2023-02-17T23:21:17.708Z,7.83
2023-02-17T23:24:05.255Z,3.80
2023-02-17T23:26:51.857Z,7.27
2023-02-17T23:29:40.703Z,6.63
2023-02-17T23:32:27.398Z,4.63
2023-02-17T23:35:13.904Z,7.30
2023-02-17T23:38:01.823Z,5.13
2023-02-17T23:40:50.908Z,9.23
2023-02-17T23:43:37.284Z,6.93
2023-02-17T23:46:23.858Z,5.37
2023-02-17T23:49:12.896Z,7.43
2023-02-17T23:51:59.446Z,7.77
2023-02-17T23:54:47.453Z,6.90
2023-02-17T23:57:39.362Z,6.93
